createdAt,value
2018-09-19T00:00:43.757Z,22.30
2018-09-19T00:03:18.258Z,22.20
2018-09-19T00:05:52.735Z,22.20
2018-09-19T00:08:27.109Z,22.10
2018-09-19T00:11:01.495Z,22.10
2018-09-19T00:13:36.059Z,22.00
2018-09-19T00:16:10.381Z,22.00
2018-09-19T00:18:44.692Z,21.90
2018-09-19T00:21:19.175Z,21.90
2018-09-19T00:23:54.681Z,21.80
2018-09-19T00:26:29.226Z,21.80
2018-09-19T00:29:03.528Z,21.80
2018-09-19T00:31:37.774Z,21.80
2018-09-19T00:34:12.188Z,21.70
2018-09-19T00:36:46.397Z,21.70
2018-09-19T00:39:20.788Z,21.70
2018-09-19T00:41:55.132Z,21.60
2018-09-19T00:44:29.499Z,21.50
2018-09-19T00:47:03.875Z,21.50
2018-09-19T00:49:38.105Z,21.50
2018-09-19T00:52:12.683Z,21.40
2018-09-19T00:54:46.861Z,21.40
2018-09-19T00:57:21.259Z,21.40
2018-09-19T00:59:55.833Z,21.40
2018-09-19T01:02:30.327Z,21.30
2018-09-19T01:05:05.297Z,21.30
2018-09-19T01:07:39.570Z,21.20
2018-09-19T01:10:13.975Z,21.20
2018-09-19T01:12:48.294Z,21.10
2018-09-19T01:15:22.561Z,21.10
2018-09-19T01:17:56.937Z,21.10
2018-09-19T01:20:31.390Z,21.00
2018-09-19T01:23:05.854Z,21.00
2018-09-19T01:25:40.201Z,21.00
2018-09-19T01:28:14.609Z,21.00
2018-09-19T01:30:49.119Z,20.90
2018-09-19T01:33:23.383Z,21.00
2018-09-19T01:35:58.703Z,20.90
2018-09-19T01:38:33.062Z,20.90
2018-09-19T01:41:07.434Z,20.80
2018-09-19T01:48:50.349Z,20.70
2018-09-19T01:53:59.750Z,20.70
2018-09-19T01:56:34.002Z,20.60
2018-09-19T02:04:16.922Z,20.60
2018-09-19T02:09:25.713Z,20.50
2018-09-19T02:12:00.237Z,20.50
2018-09-19T02:14:34.863Z,20.40
2018-09-19T02:17:09.313Z,20.30
2018-09-19T02:19:43.524Z,20.30
2018-09-19T02:22:18.060Z,20.30
2018-09-19T02:24:52.488Z,20.30
2018-09-19T02:27:26.825Z,20.20
2018-09-19T02:30:00.976Z,20.20
2018-09-19T02:32:35.337Z,20.10
2018-09-19T02:35:09.667Z,20.10
2018-09-19T02:37:44.178Z,20.10
2018-09-19T02:40:18.664Z,20.10
2018-09-19T02:42:53.005Z,20.10
2018-09-19T02:45:27.361Z,20.10
2018-09-19T02:48:02.081Z,20.10
2018-09-19T02:50:37.182Z,20.10
2018-09-19T02:53:11.540Z,20.00
2018-09-19T02:55:45.813Z,20.00
2018-09-19T02:58:20.110Z,20.00
2018-09-19T03:00:54.665Z,20.10
2018-09-19T03:03:28.970Z,20.10
2018-09-19T03:06:03.298Z,20.10
2018-09-19T03:08:37.706Z,20.00
2018-09-19T03:11:12.142Z,20.00
2018-09-19T03:13:46.485Z,20.00
2018-09-19T03:16:21.018Z,20.00
2018-09-19T03:18:55.616Z,20.00
2018-09-19T03:21:29.850Z,20.00
2018-09-19T03:24:04.349Z,19.90
2018-09-19T03:26:38.893Z,20.00
2018-09-19T03:29:13.174Z,19.90
2018-09-19T03:31:47.714Z,19.90
2018-09-19T03:34:22.139Z,19.90
2018-09-19T03:36:56.562Z,19.90
2018-09-19T03:39:30.865Z,19.90
2018-09-19T03:42:05.201Z,19.80
2018-09-19T03:44:39.607Z,19.90
2018-09-19T03:47:14.234Z,19.80
2018-09-19T03:49:48.425Z,19.80
2018-09-19T03:52:22.777Z,19.80
2018-09-19T03:54:57.125Z,19.80
2018-09-19T03:57:31.542Z,19.80
2018-09-19T04:00:05.959Z,19.80
2018-09-19T04:02:40.266Z,19.80
2018-09-19T04:05:14.600Z,19.80
2018-09-19T04:07:48.815Z,19.80
2018-09-19T04:10:23.013Z,19.80
2018-09-19T04:12:57.417Z,19.80
2018-09-19T04:15:31.740Z,19.80
2018-09-19T04:18:06.149Z,19.80
2018-09-19T04:20:40.434Z,19.80
2018-09-19T04:23:14.608Z,19.80
2018-09-19T04:25:48.888Z,19.80
2018-09-19T04:28:23.329Z,19.80
2018-09-19T04:30:57.681Z,19.80
2018-09-19T04:33:32.173Z,19.80
2018-09-19T04:36:06.570Z,19.70
2018-09-19T04:38:40.844Z,19.70
2018-09-19T04:41:15.222Z,19.70
2018-09-19T04:43:49.636Z,19.60
2018-09-19T04:46:24.007Z,19.60
2018-09-19T04:48:58.453Z,19.50
2018-09-19T04:51:33.115Z,19.40
2018-09-19T04:54:07.344Z,19.40
2018-09-19T04:56:41.782Z,19.40
2018-09-19T04:59:16.119Z,19.40
2018-09-19T05:01:50.550Z,19.40
2018-09-19T05:04:25.004Z,19.40
2018-09-19T05:06:59.426Z,19.40
2018-09-19T05:09:33.784Z,19.30
2018-09-19T05:12:08.160Z,19.30
2018-09-19T05:14:42.501Z,19.30
2018-09-19T05:17:16.924Z,19.30
2018-09-19T05:19:51.361Z,19.30
2018-09-19T05:22:25.789Z,19.40
2018-09-19T05:25:00.173Z,19.40
2018-09-19T05:27:34.435Z,19.40
2018-09-19T05:30:08.734Z,19.50
2018-09-19T05:32:43.125Z,19.60
2018-09-19T05:35:17.579Z,19.70
2018-09-19T05:40:26.035Z,19.90
2018-09-19T05:43:00.214Z,20.50
2018-09-19T05:45:34.633Z,20.20
2018-09-19T05:48:09.028Z,20.30
2018-09-19T05:53:17.290Z,20.80
2018-09-19T05:55:51.687Z,21.50
2018-09-19T05:58:27.218Z,22.70
2018-09-19T06:03:35.681Z,24.80
2018-09-19T06:06:10.139Z,25.70
2018-09-19T06:08:44.554Z,26.50
2018-09-19T06:11:18.813Z,27.20
2018-09-19T06:13:53.205Z,27.90
2018-09-19T06:21:36.093Z,27.90
2018-09-19T06:24:10.463Z,28.00
2018-09-19T06:26:44.981Z,28.10
2018-09-19T06:29:19.289Z,28.50
2018-09-19T06:31:53.584Z,28.90
2018-09-19T06:34:27.975Z,29.70
2018-09-19T06:37:02.567Z,30.40
2018-09-19T06:39:37.038Z,31.00
2018-09-19T06:42:11.851Z,31.60
2018-09-19T06:44:45.997Z,32.20
2018-09-19T06:47:20.332Z,32.80
2018-09-19T06:49:54.841Z,33.30
2018-09-19T06:52:29.328Z,33.50
2018-09-19T06:55:03.681Z,33.70
2018-09-19T06:57:38.021Z,33.70
2018-09-19T07:00:13.100Z,33.90
2018-09-19T07:02:47.551Z,34.30
2018-09-19T07:05:21.918Z,34.70
2018-09-19T07:07:56.213Z,35.10
2018-09-19T07:10:30.734Z,35.60
2018-09-19T07:13:05.988Z,36.20
2018-09-19T07:15:40.481Z,36.60
2018-09-19T07:18:14.908Z,36.70
2018-09-19T07:20:49.215Z,36.80
2018-09-19T07:23:23.435Z,37.00
2018-09-19T07:25:57.811Z,36.90
2018-09-19T07:28:32.194Z,37.00
2018-09-19T07:31:06.599Z,37.30
2018-09-19T07:33:40.837Z,37.40
2018-09-19T07:36:15.170Z,37.40
2018-09-19T07:38:49.690Z,36.50
2018-09-19T07:41:24.037Z,36.40
2018-09-19T07:43:58.425Z,36.90
2018-09-19T07:46:32.898Z,37.70
2018-09-19T07:49:07.216Z,38.20
2018-09-19T07:51:41.638Z,38.70
2018-09-19T07:54:16.032Z,38.70
2018-09-19T07:56:50.335Z,39.30
2018-09-19T07:59:24.627Z,39.60
2018-09-19T08:01:59.098Z,39.90
2018-09-19T08:04:33.369Z,40.10
2018-09-19T08:07:07.726Z,40.80
2018-09-19T08:09:42.210Z,40.90
2018-09-19T08:12:16.643Z,40.80
2018-09-19T08:14:51.732Z,41.10
2018-09-19T08:17:25.998Z,41.40
2018-09-19T08:20:00.538Z,41.50
2018-09-19T08:22:35.571Z,42.00
2018-09-19T08:25:09.992Z,42.00
2018-09-19T08:27:44.275Z,41.90
2018-09-19T08:30:18.641Z,41.90
2018-09-19T08:32:52.964Z,42.40
2018-09-19T08:35:27.364Z,42.70
2018-09-19T08:38:01.665Z,42.70
2018-09-19T08:40:36.055Z,43.30
2018-09-19T08:43:10.583Z,43.40
2018-09-19T08:45:45.133Z,43.40
2018-09-19T08:48:19.618Z,43.60
2018-09-19T08:50:53.842Z,43.70
2018-09-19T08:53:28.293Z,43.80
2018-09-19T08:56:02.624Z,43.80
2018-09-19T08:58:37.641Z,43.70
2018-09-19T09:01:11.929Z,43.80
2018-09-19T09:03:46.265Z,44.10
2018-09-19T09:06:21.719Z,44.30
2018-09-19T09:08:56.130Z,44.60
2018-09-19T09:11:30.456Z,44.50
2018-09-19T09:14:04.773Z,44.50
2018-09-19T09:16:39.178Z,44.60
2018-09-19T09:19:13.547Z,44.70
2018-09-19T09:21:48.036Z,44.50
2018-09-19T09:24:22.393Z,44.80
2018-09-19T09:26:56.875Z,44.70
2018-09-19T09:29:30.975Z,44.30
2018-09-19T09:32:05.302Z,44.90
2018-09-19T09:34:39.567Z,45.00
2018-09-19T09:37:13.963Z,45.40
2018-09-19T09:39:48.249Z,45.50
2018-09-19T09:42:22.576Z,45.50
2018-09-19T09:44:56.878Z,45.90
2018-09-19T09:47:31.320Z,46.10
2018-09-19T09:50:06.001Z,46.00
2018-09-19T09:52:40.301Z,40.30
2018-09-19T09:55:14.615Z,44.80
2018-09-19T09:57:49.063Z,44.70
2018-09-19T10:00:29.089Z,44.90
2018-09-19T10:03:03.567Z,44.90
2018-09-19T10:05:37.934Z,44.50
2018-09-19T10:10:47.177Z,44.50
2018-09-19T10:13:21.619Z,44.00
2018-09-19T10:15:56.123Z,43.70
2018-09-19T10:18:30.254Z,43.40
2018-09-19T10:26:13.678Z,42.40
2018-09-19T10:28:48.484Z,42.80
2018-09-19T10:31:22.908Z,42.90
2018-09-19T10:33:57.269Z,42.60
2018-09-19T10:36:31.706Z,42.50
2018-09-19T10:41:41.844Z,42.10
2018-09-19T10:44:16.273Z,42.10
2018-09-19T10:46:50.708Z,41.70
2018-09-19T10:49:26.176Z,41.10
2018-09-19T10:52:00.489Z,40.70
2018-09-19T10:54:34.876Z,40.50
2018-09-19T10:57:09.324Z,40.60
2018-09-19T10:59:43.715Z,40.70
2018-09-19T11:02:18.496Z,40.80
2018-09-19T11:04:54.035Z,40.60
2018-09-19T11:07:28.355Z,40.20
2018-09-19T11:10:02.834Z,40.10
2018-09-19T11:12:37.346Z,40.10
2018-09-19T11:15:11.814Z,40.00
2018-09-19T11:17:46.516Z,40.00
2018-09-19T11:22:56.321Z,39.60
2018-09-19T11:25:30.802Z,39.50
2018-09-19T11:28:05.668Z,39.40
2018-09-19T11:30:40.057Z,39.40
2018-09-19T11:33:14.377Z,38.40
2018-09-19T11:35:48.726Z,38.10
2018-09-19T11:38:23.005Z,38.10
2018-09-19T11:40:57.322Z,38.10
2018-09-19T11:43:31.582Z,38.00
2018-09-19T11:46:05.933Z,37.90
2018-09-19T11:48:40.222Z,37.60
2018-09-19T11:51:14.669Z,37.60
2018-09-19T11:53:49.178Z,37.30
2018-09-19T11:56:23.535Z,37.20
2018-09-19T11:58:57.860Z,37.00
2018-09-19T12:01:32.697Z,36.90
2018-09-19T12:04:07.053Z,36.90
2018-09-19T12:06:43.508Z,36.80
2018-09-19T12:09:17.976Z,36.70
2018-09-19T12:11:52.353Z,36.60
2018-09-19T12:14:26.724Z,36.20
2018-09-19T12:17:01.360Z,36.10
2018-09-19T12:19:35.824Z,36.00
2018-09-19T12:22:10.300Z,35.80
2018-09-19T12:24:44.749Z,35.80
2018-09-19T12:27:19.235Z,35.70
2018-09-19T12:29:55.118Z,35.70
2018-09-19T12:32:30.354Z,35.60
2018-09-19T12:35:04.958Z,35.60
2018-09-19T12:37:39.345Z,35.40
2018-09-19T12:40:13.640Z,35.40
2018-09-19T12:45:22.352Z,35.20
2018-09-19T12:47:56.867Z,35.10
2018-09-19T12:50:31.431Z,35.00
2018-09-19T12:53:05.789Z,35.00
2018-09-19T12:55:40.941Z,35.00
2018-09-19T12:58:15.406Z,35.10
2018-09-19T13:00:49.992Z,34.50
2018-09-19T13:03:24.430Z,34.00
2018-09-19T13:05:59.074Z,33.60
2018-09-19T13:08:33.546Z,33.50
2018-09-19T13:11:09.666Z,33.40
2018-09-19T13:13:44.066Z,33.40
2018-09-19T13:16:18.384Z,33.50
2018-09-19T13:18:52.807Z,33.50
2018-09-19T13:21:27.157Z,33.50
2018-09-19T13:24:01.443Z,33.70
2018-09-19T13:26:36.717Z,33.50
2018-09-19T13:29:12.871Z,33.20
2018-09-19T13:31:49.043Z,33.00
2018-09-19T13:34:23.438Z,32.90
2018-09-19T13:36:57.759Z,32.80
2018-09-19T13:39:32.126Z,33.00
2018-09-19T13:42:06.598Z,32.80
2018-09-19T13:44:41.081Z,32.90
2018-09-19T13:47:15.630Z,32.90
2018-09-19T13:49:53.882Z,32.80
2018-09-19T13:52:28.187Z,32.50
2018-09-19T13:55:02.604Z,32.30
2018-09-19T14:00:11.086Z,32.40
2018-09-19T14:02:45.432Z,32.30
2018-09-19T14:05:19.931Z,32.00
2018-09-19T14:07:55.168Z,31.90
2018-09-19T14:13:03.700Z,31.80
2018-09-19T14:18:13.208Z,31.70
2018-09-19T14:20:47.567Z,31.50
2018-09-19T14:25:56.236Z,31.50
2018-09-19T14:28:30.833Z,31.50
2018-09-19T14:31:06.095Z,28.60
2018-09-19T14:33:40.523Z,31.40
2018-09-19T14:36:15.033Z,31.30
2018-09-19T14:38:49.309Z,31.30
2018-09-19T14:41:23.813Z,31.30
2018-09-19T14:43:58.160Z,31.10
2018-09-19T14:46:32.542Z,30.90
2018-09-19T14:49:06.967Z,30.80
2018-09-19T14:51:41.332Z,30.80
2018-09-19T14:54:15.748Z,30.80
2018-09-19T14:56:50.028Z,30.80
2018-09-19T14:59:24.362Z,30.90
2018-09-19T15:01:58.785Z,30.70
2018-09-19T15:04:33.061Z,30.80
2018-09-19T15:07:07.533Z,30.70
2018-09-19T15:09:41.984Z,30.50
2018-09-19T15:12:16.376Z,30.50
2018-09-19T15:14:50.694Z,30.40
2018-09-19T15:17:25.017Z,30.30
2018-09-19T15:19:59.366Z,30.20
2018-09-19T15:22:33.625Z,30.20
2018-09-19T15:25:07.958Z,30.10
2018-09-19T15:27:42.274Z,30.10
2018-09-19T15:30:16.570Z,30.10
2018-09-19T15:32:50.914Z,30.10
2018-09-19T15:35:25.253Z,30.10
2018-09-19T15:37:59.650Z,30.10
2018-09-19T15:40:33.970Z,30.00
2018-09-19T15:43:08.339Z,29.90
2018-09-19T15:45:42.761Z,29.80
2018-09-19T15:48:17.183Z,29.70
2018-09-19T15:50:51.489Z,29.60
2018-09-19T15:53:29.246Z,29.60
2018-09-19T15:56:03.585Z,29.50
2018-09-19T15:58:37.783Z,29.40
2018-09-19T16:01:12.221Z,29.40
2018-09-19T16:03:46.541Z,29.30
2018-09-19T16:06:20.901Z,29.30
2018-09-19T16:08:55.313Z,29.20
2018-09-19T16:11:29.764Z,29.20
2018-09-19T16:14:04.248Z,29.20
2018-09-19T16:16:38.886Z,29.10
2018-09-19T16:19:13.471Z,29.10
2018-09-19T16:21:47.754Z,29.10
2018-09-19T16:24:22.239Z,29.10
2018-09-19T16:26:56.717Z,29.00
2018-09-19T16:29:31.140Z,28.80
2018-09-19T16:32:05.537Z,28.80
2018-09-19T16:34:39.881Z,28.80
2018-09-19T16:37:14.214Z,28.70
2018-09-19T16:39:48.442Z,28.70
2018-09-19T16:42:22.775Z,28.70
2018-09-19T16:44:57.325Z,28.70
2018-09-19T16:47:31.917Z,28.70
2018-09-19T16:50:06.077Z,28.70
2018-09-19T16:52:40.480Z,28.60
2018-09-19T16:55:14.847Z,28.60
2018-09-19T16:57:49.037Z,28.50
2018-09-19T17:00:23.395Z,28.50
2018-09-19T17:02:57.707Z,28.30
2018-09-19T17:05:31.928Z,28.30
2018-09-19T17:08:06.237Z,28.20
2018-09-19T17:10:41.026Z,28.20
2018-09-19T17:13:15.280Z,28.10
2018-09-19T17:15:49.644Z,28.00
2018-09-19T17:18:24.010Z,28.00
2018-09-19T17:20:58.350Z,27.90
2018-09-19T17:23:32.734Z,27.90
2018-09-19T17:26:07.140Z,27.80
2018-09-19T17:28:42.869Z,27.80
2018-09-19T17:31:18.151Z,27.70
2018-09-19T17:33:52.647Z,27.60
2018-09-19T17:36:27.009Z,27.50
2018-09-19T17:39:01.305Z,27.40
2018-09-19T17:41:35.645Z,27.40
2018-09-19T17:44:09.975Z,27.40
2018-09-19T17:46:44.486Z,27.30
2018-09-19T17:49:19.037Z,24.10
2018-09-19T17:51:53.441Z,27.20
2018-09-19T17:54:27.611Z,27.00
2018-09-19T17:57:01.964Z,27.10
2018-09-19T17:59:36.381Z,27.00
2018-09-19T18:02:10.816Z,26.90
2018-09-19T18:04:45.349Z,26.90
2018-09-19T18:07:19.791Z,26.80
2018-09-19T18:09:54.402Z,26.70
2018-09-19T18:12:28.706Z,26.70
2018-09-19T18:15:03.182Z,26.70
2018-09-19T18:17:37.449Z,26.70
2018-09-19T18:20:11.797Z,26.60
2018-09-19T18:22:46.129Z,26.60
2018-09-19T18:25:20.370Z,26.60
2018-09-19T18:27:54.705Z,26.60
2018-09-19T18:33:09.593Z,26.40
2018-09-19T18:35:44.061Z,26.40
2018-09-19T18:38:18.285Z,26.40
2018-09-19T18:40:52.629Z,26.50
2018-09-19T18:43:27.316Z,26.40
2018-09-19T18:46:01.654Z,26.40
2018-09-19T18:48:36.014Z,26.50
2018-09-19T18:51:10.292Z,26.40
2018-09-19T18:53:44.799Z,26.40
2018-09-19T18:56:19.001Z,26.40
2018-09-19T19:01:29.053Z,26.30
2018-09-19T19:06:37.501Z,26.30
2018-09-19T19:09:12.794Z,26.30
2018-09-19T19:19:33.434Z,26.20
2018-09-19T19:22:07.872Z,26.20
2018-09-19T19:27:16.426Z,26.00
2018-09-19T19:29:50.724Z,26.00
2018-09-19T19:32:26.002Z,25.90
2018-09-19T19:35:00.428Z,25.80
2018-09-19T19:37:35.140Z,25.80
2018-09-19T19:40:10.072Z,25.70
2018-09-19T19:42:44.570Z,25.70
2018-09-19T19:45:19.680Z,25.60
2018-09-19T19:47:54.094Z,25.60
2018-09-19T19:50:28.471Z,25.50
2018-09-19T19:53:02.882Z,25.40
2018-09-19T19:55:37.229Z,25.40
2018-09-19T19:58:11.639Z,25.40
2018-09-19T20:00:46.020Z,25.40
2018-09-19T20:03:21.887Z,25.30
2018-09-19T20:05:56.073Z,25.30
2018-09-19T20:08:31.473Z,25.30
2018-09-19T20:11:06.594Z,25.30
2018-09-19T20:13:42.257Z,25.30
2018-09-19T20:16:16.656Z,25.30
2018-09-19T20:18:50.960Z,25.30
2018-09-19T20:21:25.237Z,25.30
2018-09-19T20:23:59.728Z,25.20
2018-09-19T20:26:34.049Z,25.20
2018-09-19T20:29:08.433Z,25.10
2018-09-19T20:31:42.756Z,25.10
2018-09-19T20:34:17.126Z,25.10
2018-09-19T20:36:51.405Z,25.00
2018-09-19T20:39:25.786Z,25.00
2018-09-19T20:42:00.270Z,24.90
2018-09-19T20:44:34.734Z,24.90
2018-09-19T20:47:09.262Z,24.90
2018-09-19T20:49:43.541Z,24.80
2018-09-19T20:52:17.922Z,24.80
2018-09-19T20:54:52.227Z,24.70
2018-09-19T20:57:26.501Z,24.70
2018-09-19T21:00:00.963Z,24.60
2018-09-19T21:02:35.889Z,24.60
2018-09-19T21:05:10.362Z,24.60
2018-09-19T21:07:44.809Z,24.50
2018-09-19T21:10:19.418Z,24.40
2018-09-19T21:12:53.945Z,24.40
2018-09-19T21:15:28.455Z,24.40
2018-09-19T21:18:02.961Z,24.30
2018-09-19T21:20:37.466Z,24.30
2018-09-19T21:23:15.424Z,24.30
2018-09-19T21:25:50.677Z,24.30
2018-09-19T21:28:25.190Z,24.30
2018-09-19T21:30:59.393Z,24.20
2018-09-19T21:33:33.756Z,24.20
2018-09-19T21:36:08.110Z,24.10
2018-09-19T21:38:42.451Z,24.10
2018-09-19T21:41:16.767Z,24.10
2018-09-19T21:43:51.056Z,24.10
2018-09-19T21:46:25.421Z,24.10
2018-09-19T21:49:00.148Z,24.00
2018-09-19T21:51:34.392Z,24.00
2018-09-19T21:54:08.775Z,23.90
2018-09-19T21:56:43.206Z,23.90
2018-09-19T21:59:18.080Z,23.90
2018-09-19T22:01:59.765Z,23.90
2018-09-19T22:04:34.190Z,23.90
2018-09-19T22:07:08.549Z,23.90
2018-09-19T22:09:43.258Z,23.90
2018-09-19T22:12:17.591Z,23.90
2018-09-19T22:14:52.014Z,23.90
2018-09-19T22:17:26.308Z,23.80
2018-09-19T22:20:00.727Z,23.70
2018-09-19T22:22:35.193Z,23.80
2018-09-19T22:25:09.698Z,23.70
2018-09-19T22:27:44.132Z,23.70
2018-09-19T22:30:18.518Z,23.70
2018-09-19T22:32:52.966Z,23.70
2018-09-19T22:35:27.278Z,23.60
2018-09-19T22:38:01.708Z,23.60
2018-09-19T22:40:36.103Z,23.60
2018-09-19T22:43:10.500Z,23.60
2018-09-19T22:45:44.912Z,23.60
2018-09-19T22:48:19.442Z,23.50
2018-09-19T22:50:53.770Z,23.40
2018-09-19T22:53:28.282Z,23.40
2018-09-19T22:56:02.617Z,23.40
2018-09-19T22:58:36.974Z,23.30
2018-09-19T23:01:11.305Z,23.30
2018-09-19T23:03:45.626Z,23.20
2018-09-19T23:06:20.061Z,23.20
2018-09-19T23:08:54.405Z,23.10
2018-09-19T23:11:28.818Z,23.10
2018-09-19T23:14:03.090Z,23.10
2018-09-19T23:16:37.469Z,23.00
2018-09-19T23:19:11.904Z,22.90
2018-09-19T23:21:46.438Z,23.00
2018-09-19T23:24:20.933Z,22.90
2018-09-19T23:26:55.291Z,22.90
2018-09-19T23:29:29.711Z,22.90
2018-09-19T23:32:04.193Z,22.80
2018-09-19T23:34:38.728Z,22.80
2018-09-19T23:37:13.023Z,22.80
2018-09-19T23:39:47.303Z,22.80
2018-09-19T23:42:21.762Z,22.80
2018-09-19T23:44:56.195Z,22.80
2018-09-19T23:47:30.614Z,22.80
2018-09-19T23:50:05.101Z,22.80
2018-09-19T23:52:39.547Z,22.70
2018-09-19T23:55:13.901Z,22.70
2018-09-19T23:57:48.335Z,22.70
